Time;durP1;ratioP1;P1;durP2;ratioP2;P2;SDS_P1;SDS_P2;PMS_P1;PMS_P2;Temp;Humidity;BMP_temperature;BMP_pressure;BME280_temperature;BME280_humidity;BME280_pressure;Samples;Min_cycle;Max_cycle;Signal;HPM_P1;HPM_P2
2022/12/23 00:03:22;;;;;;;8.2;5.5;;;;;;;6.4;81.5;97930;;;;
2022/12/23 00:23:22;;;;;;;8.2;5.5;;;;;;;6.3;82.2;97960;;;;
2022/12/23 00:33:22;;;;;;;11.3;6.9;;;;;;;6.2;82.4;97970;;;;
2022/12/23 00:44:22;;;;;;;11.3;6.9;;;;;;;6;83.2;97970;;;;
2022/12/23 00:55:22;;;;;;;11.3;6.9;;;;;;;5.9;84.1;97980;;;;
2022/12/23 01:05:37;;;;;;;8.5;5.9;;;;;;;5.8;84.8;97990;;;;
2022/12/23 01:15:22;;;;;;;8.5;5.9;;;;;;;5.7;85.6;98000;;;;
2022/12/23 01:25:22;;;;;;;8.5;5.9;;;;;;;5.6;86.5;98000;;;;
2022/12/23 01:36:22;;;;;;;6;3.5;;;;;;;5.5;87.7;97980;;;;
2022/12/23 01:46:22;;;;;;;6;3.5;;;;;;;5.5;87.7;97970;;;;
2022/12/23 01:57:22;;;;;;;5.9;3.1;;;;;;;5.3;87.8;97970;;;;
2022/12/23 02:18:22;;;;;;;5.9;3.1;;;;;;;5.3;88;97970;;;;
2022/12/23 02:29:22;;;;;;;4.2;2.7;;;;;;;5.5;87.4;97980;;;;
2022/12/23 02:39:22;;;;;;;4.2;2.7;;;;;;;5.5;86.6;97980;;;;
2022/12/23 02:49:22;;;;;;;4.2;2.7;;;;;;;5.6;86.4;98000;;;;
2022/12/23 02:59:22;;;;;;;4.3;2.1;;;;;;;5.6;86.1;98010;;;;
2022/12/23 03:09:22;;;;;;;4.3;2.1;;;;;;;5.5;85.7;98000;;;;
2022/12/23 03:19:22;;;;;;;4.3;2.1;;;;;;;5.6;85.7;98000;;;;
2022/12/23 03:30:22;;;;;;;4.1;2.1;;;;;;;5.6;85.8;98000;;;;
2022/12/23 03:41:22;;;;;;;4.1;2.1;;;;;;;5.5;85.6;97990;;;;
2022/12/23 03:51:22;;;;;;;4.1;2.1;;;;;;;5.5;85.2;97980;;;;
2022/12/23 04:02:22;;;;;;;3.1;1.9;;;;;;;5.6;84.8;97990;;;;
2022/12/23 04:12:22;;;;;;;3.1;1.9;;;;;;;5.6;84.8;97990;;;;
2022/12/23 04:22:22;;;;;;;3.1;1.9;;;;;;;5.6;84.8;98000;;;;
2022/12/23 04:32:22;;;;;;;5.6;3.8;;;;;;;5.4;84.9;97990;;;;
2022/12/23 04:43:22;;;;;;;5.6;3.8;;;;;;;5.3;85.2;97980;;;;
2022/12/23 04:53:22;;;;;;;5.6;3.8;;;;;;;5.3;85.2;97990;;;;
2022/12/23 05:04:22;;;;;;;4.7;2.9;;;;;;;5.3;85.2;97970;;;;
2022/12/23 05:14:22;;;;;;;4.7;2.9;;;;;;;5.3;85.3;97960;;;;
2022/12/23 05:25:22;;;;;;;4.7;2.9;;;;;;;5.2;85.2;97960;;;;
2022/12/23 05:36:22;;;;;;;4.3;2.2;;;;;;;5;85.4;97950;;;;
2022/12/23 05:47:22;;;;;;;4.3;2.2;;;;;;;4.9;85.7;97950;;;;
2022/12/23 05:57:22;;;;;;;4.9;2.5;;;;;;;4.8;86;97950;;;;
2022/12/23 06:08:22;;;;;;;4.9;2.5;;;;;;;4.7;86.3;97950;;;;
2022/12/23 06:18:22;;;;;;;4.9;2.5;;;;;;;4.7;86.5;97960;;;;
2022/12/23 06:29:23;;;;;;;6.6;3.3;;;;;;;4.9;86.7;97960;;;;
2022/12/23 06:39:22;;;;;;;6.6;3.3;;;;;;;4.9;86.5;97970;;;;
2022/12/23 06:49:22;;;;;;;6.6;3.3;;;;;;;5;86.6;97960;;;;
2022/12/23 07:00:22;;;;;;;8;4.3;;;;;;;5.1;86.4;97960;;;;
2022/12/23 07:10:22;;;;;;;8;4.3;;;;;;;5.1;86;97960;;;;
2022/12/23 07:20:22;;;;;;;8;4.3;;;;;;;5;85.7;97950;;;;
2022/12/23 07:31:22;;;;;;;13.9;10.2;;;;;;;5.1;85.7;97960;;;;
2022/12/23 07:41:22;;;;;;;13.9;10.2;;;;;;;5.3;85.8;97960;;;;
2022/12/23 07:52:22;;;;;;;13.9;10.2;;;;;;;5.4;85.4;97960;;;;
2022/12/23 08:02:23;;;;;;;19.8;15.7;;;;;;;5.5;85.5;97960;;;;
2022/12/23 08:13:22;;;;;;;19.8;15.7;;;;;;;5.9;85.5;97950;;;;
2022/12/23 08:24:22;;;;;;;19.8;15.7;;;;;;;6.5;85.4;97950;;;;
2022/12/23 08:35:22;;;;;;;15.6;11.1;;;;;;;7;84.4;97960;;;;
2022/12/23 08:46:22;;;;;;;15.6;11.1;;;;;;;7.3;82.5;97960;;;;
2022/12/23 08:57:22;;;;;;;7.3;5.2;;;;;;;7.5;81.4;97940;;;;
2022/12/23 09:07:22;;;;;;;7.3;5.2;;;;;;;7.6;81;97940;;;;
2022/12/23 09:17:22;;;;;;;7.3;5.2;;;;;;;7.8;81;97920;;;;
2022/12/23 09:28:22;;;;;;;13;6.9;;;;;;;8.2;80.9;97900;;;;
2022/12/23 09:38:22;;;;;;;13;6.9;;;;;;;8.4;79.9;97900;;;;
2022/12/23 09:48:24;;;;;;;13;6.9;;;;;;;8.2;79.7;97890;;;;
2022/12/23 09:58:22;;;;;;;16.7;11.1;;;;;;;7.7;81;97890;;;;
2022/12/23 10:08:22;;;;;;;16.7;11.1;;;;;;;7.7;82.4;97870;;;;
2022/12/23 10:18:22;;;;;;;16.7;11.1;;;;;;;7.7;83;97850;;;;
2022/12/23 10:29:22;;;;;;;8.8;6.6;;;;;;;7.7;83;97850;;;;
2022/12/23 10:40:22;;;;;;;8.8;6.6;;;;;;;7.8;83.1;97840;;;;
2022/12/23 10:51:22;;;;;;;8.8;6.6;;;;;;;8;82.7;97840;;;;
2022/12/23 11:01:22;;;;;;;6.8;4.3;;;;;;;8.1;83;97840;;;;
2022/12/23 11:12:22;;;;;;;6.8;4.3;;;;;;;8.1;83.3;97840;;;;
2022/12/23 11:23:22;;;;;;;6.8;4.3;;;;;;;8.1;83.6;97830;;;;
2022/12/23 11:34:23;;;;;;;6.1;3.8;;;;;;;8.1;83;97830;;;;
2022/12/23 11:45:23;;;;;;;6.1;3.8;;;;;;;8.4;82.3;97820;;;;
2022/12/23 11:56:22;;;;;;;6.3;3.6;;;;;;;8.5;81.5;97810;;;;
2022/12/23 12:06:22;;;;;;;6.3;3.6;;;;;;;8.6;81;97820;;;;
2022/12/23 12:17:22;;;;;;;6.3;3.6;;;;;;;8.7;80.9;97820;;;;
2022/12/23 12:47:58;;;;;;;6.1;4.3;;;;;;;8.7;80.4;97810;;;;
2022/12/23 12:57:58;;;;;;;6.1;4.3;;;;;;;8.7;80.3;97810;;;;
2022/12/23 13:07:58;;;;;;;6.1;4.3;;;;;;;8.7;80;97820;;;;
2022/12/23 13:18:58;;;;;;;8.3;5.3;;;;;;;8.7;80;97830;;;;
2022/12/23 13:29:58;;;;;;;8.3;5.3;;;;;;;8.8;79.8;97830;;;;
2022/12/23 13:39:58;;;;;;;8.3;5.3;;;;;;;8.7;79.9;97840;;;;
2022/12/23 13:50:58;;;;;;;7.2;4.7;;;;;;;8.5;79.8;97840;;;;
2022/12/23 14:00:58;;;;;;;7.2;4.7;;;;;;;8.5;80.5;97850;;;;
2022/12/23 14:10:58;;;;;;;7.2;4.7;;;;;;;8.4;80.7;97850;;;;
2022/12/23 14:21:58;;;;;;;7.3;5.1;;;;;;;8.2;81;97870;;;;
2022/12/23 14:31:58;;;;;;;7.3;5.1;;;;;;;8.1;81.3;97880;;;;
2022/12/23 14:41:58;;;;;;;7.3;5.1;;;;;;;8;81.8;97890;;;;
2022/12/23 14:52:58;;;;;;;10.6;7.4;;;;;;;7.8;82.2;97900;;;;
2022/12/23 15:02:58;;;;;;;10.6;7.4;;;;;;;7.7;82.5;97900;;;;
2022/12/23 15:13:58;;;;;;;10.6;7.4;;;;;;;7.3;82.2;97910;;;;
2022/12/23 15:23:58;;;;;;;13.4;10.6;;;;;;;7.2;83.4;97910;;;;
2022/12/23 15:34:58;;;;;;;13.4;10.6;;;;;;;7.2;83.8;97900;;;;
2022/12/23 15:44:58;;;;;;;12.7;9.6;;;;;;;7.1;84.3;97890;;;;
2022/12/23 15:55:00;;;;;;;12.7;9.6;;;;;;;7;84.8;97890;;;;
2022/12/23 16:05:58;;;;;;;12.7;9.6;;;;;;;6.9;85;97900;;;;
2022/12/23 16:15:58;;;;;;;13.2;10;;;;;;;6.7;85.2;97890;;;;
2022/12/23 16:26:58;;;;;;;13.2;10;;;;;;;6.5;85.7;97900;;;;
2022/12/23 16:37:58;;;;;;;13.2;10;;;;;;;6.4;86;97910;;;;
2022/12/23 16:47:58;;;;;;;13.6;9.8;;;;;;;6.4;86;97900;;;;
2022/12/23 16:57:58;;;;;;;13.6;9.8;;;;;;;6.4;86;97890;;;;
2022/12/23 17:08:58;;;;;;;13.6;9.8;;;;;;;6.4;85.8;97880;;;;
2022/12/23 17:18:59;;;;;;;18.6;13.9;;;;;;;6.3;85.7;97870;;;;
2022/12/23 17:28:58;;;;;;;18.6;13.9;;;;;;;6.3;86.1;97870;;;;
2022/12/23 17:39:58;;;;;;;18.6;13.9;;;;;;;6.2;85.9;97870;;;;
2022/12/23 17:50:58;;;;;;;19.4;11.7;;;;;;;6;85.8;97890;;;;
2022/12/23 18:01:58;;;;;;;19.4;11.7;;;;;;;5.8;85.6;97890;;;;
2022/12/23 18:12:58;;;;;;;19.4;11.7;;;;;;;5.5;85.9;97900;;;;
2022/12/23 18:22:58;;;;;;;18.3;14.7;;;;;;;5.5;86.2;97910;;;;
2022/12/23 18:32:58;;;;;;;18.3;14.7;;;;;;;5.5;86.7;97910;;;;
2022/12/23 18:42:58;;;;;;;18.3;14.7;;;;;;;5.5;86.9;97910;;;;
2022/12/23 18:52:58;;;;;;;33.7;28.5;;;;;;;5.6;87.1;97910;;;;
2022/12/23 19:03:58;;;;;;;33.7;28.5;;;;;;;5.6;87;97920;;;;
2022/12/23 19:14:58;;;;;;;29.4;25;;;;;;;5.6;86.9;97930;;;;
2022/12/23 19:24:58;;;;;;;29.4;25;;;;;;;5.7;87;97930;;;;
2022/12/23 19:35:58;;;;;;;29.4;25;;;;;;;5.6;86.8;97930;;;;
2022/12/23 19:47:00;;;;;;;30.6;23.3;;;;;;;5.6;86.7;97920;;;;
2022/12/23 19:56:58;;;;;;;30.6;23.3;;;;;;;5.6;86.7;97920;;;;
2022/12/23 20:06:58;;;;;;;30.6;23.3;;;;;;;5.6;86.8;97930;;;;
2022/12/23 20:17:58;;;;;;;14.9;12.4;;;;;;;5.8;87.3;97910;;;;
2022/12/23 20:27:58;;;;;;;14.9;12.4;;;;;;;6;87.1;97920;;;;
2022/12/23 20:37:58;;;;;;;14.9;12.4;;;;;;;6.1;86.9;97910;;;;
2022/12/23 20:48:58;;;;;;;12.2;8;;;;;;;6.2;86.1;97890;;;;
2022/12/23 20:59:58;;;;;;;12.2;8;;;;;;;6.2;85.7;97870;;;;
2022/12/23 21:10:58;;;;;;;12.2;8;;;;;;;6.3;85.5;97870;;;;
2022/12/23 21:20:58;;;;;;;9.9;6.5;;;;;;;6.3;85.4;97860;;;;
2022/12/23 21:30:58;;;;;;;9.9;6.5;;;;;;;6.2;85.1;97840;;;;
2022/12/23 21:41:58;;;;;;;9.9;6.5;;;;;;;6.3;85.1;97840;;;;
2022/12/23 21:52:58;;;;;;;10.8;7;;;;;;;6.2;84.8;97830;;;;
2022/12/23 22:02:59;;;;;;;10.8;7;;;;;;;6.4;84.8;97820;;;;
2022/12/23 22:13:58;;;;;;;11.6;7;;;;;;;6.5;84.5;97820;;;;
2022/12/23 22:23:58;;;;;;;11.6;7;;;;;;;6.5;84.3;97810;;;;
2022/12/23 22:33:58;;;;;;;11.6;7;;;;;;;6.5;84.2;97800;;;;
2022/12/23 22:43:58;;;;;;;15.8;9.9;;;;;;;6.6;84.2;97810;;;;
2022/12/23 22:53:58;;;;;;;15.8;9.9;;;;;;;6.5;84.1;97800;;;;
2022/12/23 23:04:58;;;;;;;15.8;9.9;;;;;;;6.4;83.9;97800;;;;
2022/12/23 23:14:58;;;;;;;22.6;16.9;;;;;;;6.2;84.3;97790;;;;
2022/12/23 23:25:58;;;;;;;22.6;16.9;;;;;;;6;85.4;97790;;;;
2022/12/23 23:35:58;;;;;;;22.6;16.9;;;;;;;6;85.9;97780;;;;
2022/12/23 23:45:58;;;;;;;20.8;16.4;;;;;;;5.9;86;97790;;;;
2022/12/23 23:56:58;;;;;;;20.8;16.4;;;;;;;5.8;86.3;97790;;;;
